Date,TemperatureHighF,TemperatureAvgF,TemperatureLowF,DewpointHighF,DewpointAvgF,DewpointLowF,HumidityHigh,HumidityAvg,HumidityLow,PressureMaxIn,PressureMinIn,WindSpeedMaxMPH,WindSpeedAvgMPH,GustSpeedMaxMPH,PrecipitationSumIn
2013-10-1,77.6,67.2,59.8,64.5,61.4,58.9,97,83,55,29.17,29.05,4,2,10,0.03
2013-10-2,78.9,68.8,58.1,66.6,62.2,54.2,95,81,51,29.24,29.06,10,2,12,0.02
2013-10-3,74.1,61.4,49.5,57.8,52.5,46.6,93,75,41,29.29,29.17,10,1,11,0.01
2013-10-4,65.4,62.3,59.8,64.5,61.1,56.1,99,96,81,29.24,29.14,9,2,18,0.02
2013-10-5,61.2,59.6,58.0,60.1,58.0,56.5,98,94,90,29.28,29.18,6,3,13,0.01
2013-10-6,80.8,68.7,60.0,74.1,65.6,57.7,99,90,72,29.18,28.84,17,5,25,0.01
2013-10-7,74.7,60.5,50.9,67.4,55.9,47.5,96,85,71,29.21,28.77,17,5,26,0.02
2013-10-8,65.6,55.0,48.1,53.5,47.7,45.3,95,78,52,29.52,29.21,8,2,10,0.02
2013-10-9,67.2,55.4,44.6,53.2,47.1,42.1,91,76,42,29.57,29.43,11,3,15,0.01
2013-10-10,67.8,55.5,44.1,52.9,45.6,39.5,91,72,38,29.45,29.32,8,2,14,0.01
2013-10-11,67.2,55.9,48.1,57.2,50.3,45.4,97,82,60,29.34,29.28,8,2,11,0.02
2013-10-12,74.0,60.7,48.0,55.9,48.7,43.7,97,68,35,29.36,29.28,12,4,14,0.02
2013-10-13,70.7,63.4,59.1,63.8,55.5,43.8,97,77,52,29.42,29.32,12,5,16,0.03
2013-10-14,66.3,57.3,49.6,61.3,51.8,46.0,100,83,61,29.50,29.40,7,2,13,0.04
2013-10-15,68.1,57.0,45.6,58.3,52.0,43.5,95,84,67,29.46,29.10,12,5,15,0.01
2013-10-16,69.5,63.0,55.3,61.8,57.9,52.7,94,84,72,29.10,28.89,10,4,14,0.00
2013-10-17,66.1,55.9,50.4,56.8,51.3,47.4,97,85,63,29.04,28.84,6,1,9,0.00
2013-10-18,59.6,53.5,48.7,51.8,46.8,41.3,97,80,54,29.07,28.88,13,4,17,0.03
2013-10-19,60.8,52.8,43.1,50.3,46.7,41.5,95,80,61,29.05,28.80,12,3,15,0.15
2013-10-20,56.5,47.9,41.1,46.8,43.2,38.7,95,84,63,29.15,28.92,8,2,10,0.00
2013-10-21,65.6,55.9,47.1,50.3,44.0,41.1,94,67,41,29.15,28.95,9,4,13,0.05
2013-10-22,50.6,46.2,41.1,48.6,38.4,32.8,96,76,55,29.01,28.91,11,4,15,0.44
2013-10-23,45.5,41.2,37.3,41.9,37.4,33.1,95,86,73,29.00,28.89,8,1,10,0.05
2013-10-24,49.2,40.4,34.8,38.7,35.2,32.4,91,82,65,29.07,28.97,11,4,14,0.01
2013-10-25,51.4,45.5,37.0,44.0,39.4,36.2,98,80,68,29.36,29.30,10,4,12,0.02
2013-10-26,44.5,41.5,38.7,39.2,36.2,31.8,95,82,65,29.30,28.95,10,6,17,0.18
2013-10-27,48.1,42.4,37.1,42.9,38.5,35.4,96,86,68,29.24,28.99,7,2,11,0.00
2013-10-28,46.5,42.2,33.0,41.3,33.7,24.4,84,72,44,29.58,29.20,9,3,15,0.00
2013-10-29,44.3,37.3,29.7,34.5,30.0,25.4,87,75,60,29.67,29.50,7,2,12,0.01
2013-10-30,56.2,44.9,38.4,44.6,39.8,34.4,94,83,61,29.49,29.27,13,3,19,0.03
2013-10-31,68.1,56.7,44.6,61.2,52.9,40.4,98,87,72,29.26,28.51,12,6,22,0.48